sensor_id;sensor_type;location;lat;lon;timestamp;pressure;altitude;pressure_sealevel;temperature;humidity
80988;BME280;70452;39.386;-3.210;2023-08-24T00:02:02;94268.38;;;26.60;21.50
80988;BME280;70452;39.386;-3.210;2023-08-24T00:04:50;94265.59;;;26.60;21.55
80988;BME280;70452;39.386;-3.210;2023-08-24T00:07:31;94265.88;;;26.51;21.95
80988;BME280;70452;39.386;-3.210;2023-08-24T00:10:04;94264.28;;;26.50;21.82
80988;BME280;70452;39.386;-3.210;2023-08-24T00:12:50;94261.91;;;26.52;21.64
80988;BME280;70452;39.386;-3.210;2023-08-24T00:15:33;94262.31;;;26.54;22.05
80988;BME280;70452;39.386;-3.210;2023-08-24T00:18:11;94254.28;;;26.49;22.13
80988;BME280;70452;39.386;-3.210;2023-08-24T00:20:50;94253.09;;;26.46;21.79
80988;BME280;70452;39.386;-3.210;2023-08-24T00:23:21;94252.25;;;26.46;22.19
80988;BME280;70452;39.386;-3.210;2023-08-24T00:26:14;94250.66;;;26.41;22.11
80988;BME280;70452;39.386;-3.210;2023-08-24T00:28:47;94245.78;;;26.34;22.17
80988;BME280;70452;39.386;-3.210;2023-08-24T00:31:28;94249.75;;;26.33;22.31
80988;BME280;70452;39.386;-3.210;2023-08-24T00:34:07;94252.13;;;26.31;22.22
80988;BME280;70452;39.386;-3.210;2023-08-24T00:36:52;94252.47;;;26.26;22.40
80988;BME280;70452;39.386;-3.210;2023-08-24T00:39:32;94247.69;;;26.27;22.62
80988;BME280;70452;39.386;-3.210;2023-08-24T00:42:19;94246.84;;;26.23;22.32
80988;BME280;70452;39.386;-3.210;2023-08-24T00:45:07;94236.72;;;26.07;22.60
80988;BME280;70452;39.386;-3.210;2023-08-24T00:47:51;94243.34;;;25.95;23.10
80988;BME280;70452;39.386;-3.210;2023-08-24T00:50:27;94243.06;;;26.04;23.08
80988;BME280;70452;39.386;-3.210;2023-08-24T00:53:19;94237.06;;;26.02;23.11
80988;BME280;70452;39.386;-3.210;2023-08-24T00:55:57;94241.75;;;25.94;22.98
80988;BME280;70452;39.386;-3.210;2023-08-24T00:58:38;94237.97;;;25.79;23.34
80988;BME280;70452;39.386;-3.210;2023-08-24T01:01:17;94249.69;;;25.62;23.47
80988;BME280;70452;39.386;-3.210;2023-08-24T01:03:48;94238.97;;;25.64;23.73
80988;BME280;70452;39.386;-3.210;2023-08-24T01:06:31;94238.63;;;25.69;23.60
80988;BME280;70452;39.386;-3.210;2023-08-24T01:09:09;94244.59;;;25.68;23.70
80988;BME280;70452;39.386;-3.210;2023-08-24T01:17:46;94232.97;;;25.62;23.60
80988;BME280;70452;39.386;-3.210;2023-08-24T01:20:20;94233.38;;;25.64;23.85
80988;BME280;70452;39.386;-3.210;2023-08-24T01:28:18;94237.34;;;25.63;23.59
80988;BME280;70452;39.386;-3.210;2023-08-24T01:31:06;94237.25;;;25.56;23.98
80988;BME280;70452;39.386;-3.210;2023-08-24T01:33:53;94252.72;;;25.50;23.92
80988;BME280;70452;39.386;-3.210;2023-08-24T01:36:45;94242.31;;;25.47;23.98
80988;BME280;70452;39.386;-3.210;2023-08-24T01:39:30;94244.22;;;25.42;23.83
80988;BME280;70452;39.386;-3.210;2023-08-24T01:42:10;94236.28;;;25.18;24.39
80988;BME280;70452;39.386;-3.210;2023-08-24T01:44:56;94232.50;;;25.30;24.19
80988;BME280;70452;39.386;-3.210;2023-08-24T01:47:38;94233.13;;;25.19;24.21
80988;BME280;70452;39.386;-3.210;2023-08-24T01:50:09;94232.47;;;25.26;24.14
80988;BME280;70452;39.386;-3.210;2023-08-24T01:52:42;94241.50;;;25.19;24.33
80988;BME280;70452;39.386;-3.210;2023-08-24T01:55:36;94231.38;;;25.07;24.58
80988;BME280;70452;39.386;-3.210;2023-08-24T01:58:20;94228.94;;;25.06;24.32
80988;BME280;70452;39.386;-3.210;2023-08-24T02:01:05;94225.38;;;25.05;24.65
80988;BME280;70452;39.386;-3.210;2023-08-24T02:03:34;94221.47;;;25.10;24.30
80988;BME280;70452;39.386;-3.210;2023-08-24T02:06:08;94221.88;;;25.12;24.26
80988;BME280;70452;39.386;-3.210;2023-08-24T02:08:39;94227.41;;;25.08;24.75
80988;BME280;70452;39.386;-3.210;2023-08-24T02:11:23;94228.06;;;24.98;24.65
80988;BME280;70452;39.386;-3.210;2023-08-24T02:14:13;94221.19;;;24.92;24.85
80988;BME280;70452;39.386;-3.210;2023-08-24T02:16:51;94214.59;;;25.04;24.71
80988;BME280;70452;39.386;-3.210;2023-08-24T02:19:34;94218.06;;;25.24;24.25
80988;BME280;70452;39.386;-3.210;2023-08-24T02:22:09;94212.75;;;25.42;24.03
80988;BME280;70452;39.386;-3.210;2023-08-24T02:24:47;94205.94;;;25.36;24.76
80988;BME280;70452;39.386;-3.210;2023-08-24T02:27:21;94210.75;;;25.12;24.50
80988;BME280;70452;39.386;-3.210;2023-08-24T02:29:55;94212.41;;;24.90;25.11
80988;BME280;70452;39.386;-3.210;2023-08-24T02:32:30;94226.91;;;24.76;25.24
80988;BME280;70452;39.386;-3.210;2023-08-24T02:35:11;94215.13;;;24.63;25.54
80988;BME280;70452;39.386;-3.210;2023-08-24T02:37:46;94211.25;;;24.45;26.14
80988;BME280;70452;39.386;-3.210;2023-08-24T02:40:19;94211.63;;;24.43;25.91
80988;BME280;70452;39.386;-3.210;2023-08-24T02:42:50;94210.47;;;24.48;25.95
80988;BME280;70452;39.386;-3.210;2023-08-24T02:45:25;94212.66;;;24.35;26.03
80988;BME280;70452;39.386;-3.210;2023-08-24T02:47:55;94214.03;;;24.45;25.96
80988;BME280;70452;39.386;-3.210;2023-08-24T02:50:30;94206.91;;;24.47;25.79
80988;BME280;70452;39.386;-3.210;2023-08-24T02:53:05;94209.03;;;24.54;26.04
80988;BME280;70452;39.386;-3.210;2023-08-24T02:55:35;94210.16;;;24.53;26.12
80988;BME280;70452;39.386;-3.210;2023-08-24T02:58:17;94215.50;;;24.39;26.23
80988;BME280;70452;39.386;-3.210;2023-08-24T03:00:59;94203.75;;;24.72;26.08
80988;BME280;70452;39.386;-3.210;2023-08-24T03:03:37;94205.38;;;25.00;25.64
80988;BME280;70452;39.386;-3.210;2023-08-24T03:06:18;94205.72;;;24.95;25.78
80988;BME280;70452;39.386;-3.210;2023-08-24T03:08:51;94203.50;;;24.58;26.12
80988;BME280;70452;39.386;-3.210;2023-08-24T03:11:26;94208.13;;;24.27;26.31
80988;BME280;70452;39.386;-3.210;2023-08-24T03:13:58;94211.88;;;24.15;26.93
80988;BME280;70452;39.386;-3.210;2023-08-24T03:16:30;94207.81;;;24.09;26.70
80988;BME280;70452;39.386;-3.210;2023-08-24T03:19:01;94203.41;;;23.85;27.60
80988;BME280;70452;39.386;-3.210;2023-08-24T03:21:35;94206.75;;;23.94;27.21
80988;BME280;70452;39.386;-3.210;2023-08-24T03:24:12;94204.19;;;24.28;27.15
80988;BME280;70452;39.386;-3.210;2023-08-24T03:26:47;94209.16;;;24.61;26.61
80988;BME280;70452;39.386;-3.210;2023-08-24T03:29:17;94205.34;;;24.27;26.74
80988;BME280;70452;39.386;-3.210;2023-08-24T03:31:51;94205.66;;;24.22;26.99
80988;BME280;70452;39.386;-3.210;2023-08-24T03:34:30;94211.97;;;24.19;27.08
80988;BME280;70452;39.386;-3.210;2023-08-24T03:37:10;94212.53;;;23.85;27.38
80988;BME280;70452;39.386;-3.210;2023-08-24T03:39:48;94203.81;;;23.67;27.88
80988;BME280;70452;39.386;-3.210;2023-08-24T03:42:20;94207.03;;;23.69;27.90
80988;BME280;70452;39.386;-3.210;2023-08-24T03:44:50;94214.63;;;23.53;28.60
80988;BME280;70452;39.386;-3.210;2023-08-24T03:47:24;94211.94;;;23.37;28.49
80988;BME280;70452;39.386;-3.210;2023-08-24T03:50:02;94213.44;;;23.34;28.69
80988;BME280;70452;39.386;-3.210;2023-08-24T03:52:36;94207.09;;;23.34;28.89
80988;BME280;70452;39.386;-3.210;2023-08-24T03:55:12;94211.41;;;23.31;29.03
80988;BME280;70452;39.386;-3.210;2023-08-24T03:57:47;94215.44;;;23.53;28.77
80988;BME280;70452;39.386;-3.210;2023-08-24T04:00:16;94218.09;;;23.85;28.52
80988;BME280;70452;39.386;-3.210;2023-08-24T04:02:53;94221.09;;;23.96;28.20
80988;BME280;70452;39.386;-3.210;2023-08-24T04:05:26;94220.69;;;23.39;28.74
80988;BME280;70452;39.386;-3.210;2023-08-24T04:08:01;94218.84;;;23.08;29.49
80988;BME280;70452;39.386;-3.210;2023-08-24T04:10:33;94214.44;;;23.07;29.56
80988;BME280;70452;39.386;-3.210;2023-08-24T04:13:06;94226.69;;;23.21;29.49
80988;BME280;70452;39.386;-3.210;2023-08-24T04:15:47;94216.47;;;23.45;29.04
80988;BME280;70452;39.386;-3.210;2023-08-24T04:18:31;94218.28;;;23.18;29.38
80988;BME280;70452;39.386;-3.210;2023-08-24T04:21:15;94233.00;;;22.71;30.33
80988;BME280;70452;39.386;-3.210;2023-08-24T04:23:49;94232.41;;;22.45;30.68
80988;BME280;70452;39.386;-3.210;2023-08-24T04:26:24;94231.22;;;22.78;30.20
80988;BME280;70452;39.386;-3.210;2023-08-24T04:28:58;94230.97;;;22.68;30.52
80988;BME280;70452;39.386;-3.210;2023-08-24T04:31:39;94236.34;;;22.60;30.70
80988;BME280;70452;39.386;-3.210;2023-08-24T04:34:16;94237.50;;;22.43;31.04
80988;BME280;70452;39.386;-3.210;2023-08-24T04:37:15;94225.41;;;22.52;30.69
80988;BME280;70452;39.386;-3.210;2023-08-24T04:39:52;94231.22;;;22.46;30.97
80988;BME280;70452;39.386;-3.210;2023-08-24T04:42:39;94234.53;;;22.36;31.25
80988;BME280;70452;39.386;-3.210;2023-08-24T04:45:12;94237.00;;;22.25;31.76
80988;BME280;70452;39.386;-3.210;2023-08-24T04:47:57;94232.03;;;22.31;31.63
80988;BME280;70452;39.386;-3.210;2023-08-24T04:50:40;94239.22;;;22.32;31.57
80988;BME280;70452;39.386;-3.210;2023-08-24T04:53:22;94243.38;;;22.26;31.87
80988;BME280;70452;39.386;-3.210;2023-08-24T04:56:08;94239.53;;;22.15;32.18
80988;BME280;70452;39.386;-3.210;2023-08-24T04:58:39;94242.28;;;22.15;32.42
80988;BME280;70452;39.386;-3.210;2023-08-24T05:01:17;94232.41;;;22.45;31.64
80988;BME280;70452;39.386;-3.210;2023-08-24T05:03:56;94244.03;;;22.67;31.46
80988;BME280;70452;39.386;-3.210;2023-08-24T05:06:31;94252.09;;;22.72;31.56
80988;BME280;70452;39.386;-3.210;2023-08-24T05:12:10;94247.44;;;22.28;32.28
80988;BME280;70452;39.386;-3.210;2023-08-24T05:14:50;94243.44;;;22.14;32.56
80988;BME280;70452;39.386;-3.210;2023-08-24T05:17:29;94241.97;;;22.04;32.74
80988;BME280;70452;39.386;-3.210;2023-08-24T05:20:06;94252.59;;;21.86;33.19
80988;BME280;70452;39.386;-3.210;2023-08-24T05:22:40;94254.22;;;21.87;33.16
80988;BME280;70452;39.386;-3.210;2023-08-24T05:25:12;94251.41;;;21.99;32.70
80988;BME280;70452;39.386;-3.210;2023-08-24T05:27:47;94249.41;;;22.00;32.77
80988;BME280;70452;39.386;-3.210;2023-08-24T05:30:27;94259.91;;;22.06;32.59
80988;BME280;70452;39.386;-3.210;2023-08-24T05:32:56;94256.97;;;22.15;32.34
80988;BME280;70452;39.386;-3.210;2023-08-24T05:35:39;94264.84;;;21.85;32.95
80988;BME280;70452;39.386;-3.210;2023-08-24T05:38:15;94260.88;;;21.98;32.38
80988;BME280;70452;39.386;-3.210;2023-08-24T05:40:53;94269.53;;;21.97;32.73
80988;BME280;70452;39.386;-3.210;2023-08-24T05:43:25;94272.06;;;22.02;32.45
80988;BME280;70452;39.386;-3.210;2023-08-24T05:46:01;94276.66;;;22.26;31.96
80988;BME280;70452;39.386;-3.210;2023-08-24T05:48:42;94268.47;;;22.29;31.93
80988;BME280;70452;39.386;-3.210;2023-08-24T05:51:21;94268.69;;;22.37;31.70
80988;BME280;70452;39.386;-3.210;2023-08-24T05:53:57;94272.97;;;22.82;31.07
80988;BME280;70452;39.386;-3.210;2023-08-24T05:56:35;94278.06;;;22.96;30.89
80988;BME280;70452;39.386;-3.210;2023-08-24T05:59:15;94277.19;;;23.08;30.45
80988;BME280;70452;39.386;-3.210;2023-08-24T06:01:52;94272.78;;;23.23;30.34
80988;BME280;70452;39.386;-3.210;2023-08-24T06:04:38;94269.25;;;23.26;30.23
80988;BME280;70452;39.386;-3.210;2023-08-24T06:07:30;94274.41;;;23.43;29.87
80988;BME280;70452;39.386;-3.210;2023-08-24T06:10:05;94278.28;;;23.93;29.18
80988;BME280;70452;39.386;-3.210;2023-08-24T06:12:48;94281.75;;;24.29;28.42
80988;BME280;70452;39.386;-3.210;2023-08-24T06:15:23;94284.03;;;24.24;28.90
80988;BME280;70452;39.386;-3.210;2023-08-24T06:18:01;94284.53;;;24.72;27.99
80988;BME280;70452;39.386;-3.210;2023-08-24T06:20:44;94271.13;;;25.58;26.78
80988;BME280;70452;39.386;-3.210;2023-08-24T06:23:39;94278.72;;;25.88;26.23
80988;BME280;70452;39.386;-3.210;2023-08-24T06:26:13;94283.41;;;25.50;26.86
80988;BME280;70452;39.386;-3.210;2023-08-24T06:28:49;94285.94;;;25.08;27.49
80988;BME280;70452;39.386;-3.210;2023-08-24T06:31:24;94276.34;;;25.29;27.34
80988;BME280;70452;39.386;-3.210;2023-08-24T06:34:33;94271.69;;;25.67;26.73
80988;BME280;70452;39.386;-3.210;2023-08-24T06:37:37;94266.16;;;25.71;27.16
80988;BME280;70452;39.386;-3.210;2023-08-24T06:40:13;94272.63;;;25.48;26.99
80988;BME280;70452;39.386;-3.210;2023-08-24T06:43:20;94271.94;;;25.28;27.62
80988;BME280;70452;39.386;-3.210;2023-08-24T06:46:25;94279.97;;;25.60;27.18
80988;BME280;70452;39.386;-3.210;2023-08-24T06:49:06;94280.53;;;26.41;25.97
80988;BME280;70452;39.386;-3.210;2023-08-24T06:51:37;94275.59;;;27.05;25.36
80988;BME280;70452;39.386;-3.210;2023-08-24T06:54:14;94288.53;;;27.24;24.90
80988;BME280;70452;39.386;-3.210;2023-08-24T06:56:58;94283.09;;;27.42;24.55
80988;BME280;70452;39.386;-3.210;2023-08-24T06:59:38;94279.63;;;27.08;25.08
80988;BME280;70452;39.386;-3.210;2023-08-24T07:02:20;94284.13;;;27.23;25.38
80988;BME280;70452;39.386;-3.210;2023-08-24T07:04:52;94284.31;;;27.45;25.02
80988;BME280;70452;39.386;-3.210;2023-08-24T07:07:40;94281.72;;;27.81;24.49
80988;BME280;70452;39.386;-3.210;2023-08-24T07:10:22;94298.88;;;27.76;24.21
80988;BME280;70452;39.386;-3.210;2023-08-24T07:13:01;94288.97;;;27.89;24.43
80988;BME280;70452;39.386;-3.210;2023-08-24T07:15:49;94288.22;;;27.37;24.86
80988;BME280;70452;39.386;-3.210;2023-08-24T07:18:43;94288.56;;;27.28;24.84
80988;BME280;70452;39.386;-3.210;2023-08-24T07:21:30;94289.91;;;28.15;24.02
80988;BME280;70452;39.386;-3.210;2023-08-24T07:24:17;94283.25;;;27.71;24.55
80988;BME280;70452;39.386;-3.210;2023-08-24T07:29:51;94297.22;;;27.67;24.38
80988;BME280;70452;39.386;-3.210;2023-08-24T07:32:29;94302.53;;;27.83;24.22
80988;BME280;70452;39.386;-3.210;2023-08-24T07:35:04;94305.72;;;28.70;23.38
80988;BME280;70452;39.386;-3.210;2023-08-24T07:37:46;94313.72;;;28.68;23.32
80988;BME280;70452;39.386;-3.210;2023-08-24T07:40:16;94302.84;;;27.71;24.76
80988;BME280;70452;39.386;-3.210;2023-08-24T07:43:01;94302.13;;;28.80;23.43
80988;BME280;70452;39.386;-3.210;2023-08-24T07:45:50;94307.66;;;28.55;24.05
80988;BME280;70452;39.386;-3.210;2023-08-24T07:48:18;94299.34;;;29.09;23.23
80988;BME280;70452;39.386;-3.210;2023-08-24T07:50:55;94302.97;;;29.81;22.20
80988;BME280;70452;39.386;-3.210;2023-08-24T07:53:33;94307.19;;;30.33;21.90
80988;BME280;70452;39.386;-3.210;2023-08-24T07:56:05;94308.22;;;30.75;21.31
80988;BME280;70452;39.386;-3.210;2023-08-24T07:58:51;94302.91;;;30.95;21.05
80988;BME280;70452;39.386;-3.210;2023-08-24T08:01:22;94307.69;;;30.06;21.86
80988;BME280;70452;39.386;-3.210;2023-08-24T08:04:05;94317.81;;;30.81;21.29
80988;BME280;70452;39.386;-3.210;2023-08-24T08:06:40;94318.03;;;30.45;21.58
80988;BME280;70452;39.386;-3.210;2023-08-24T08:12:07;94311.81;;;31.38;20.63
80988;BME280;70452;39.386;-3.210;2023-08-24T08:14:42;94318.25;;;31.84;19.99
80988;BME280;70452;39.386;-3.210;2023-08-24T08:17:24;94309.13;;;31.73;20.41
80988;BME280;70452;39.386;-3.210;2023-08-24T08:23:05;94318.25;;;32.26;19.96
80988;BME280;70452;39.386;-3.210;2023-08-24T08:25:58;94320.34;;;32.49;19.81
80988;BME280;70452;39.386;-3.210;2023-08-24T08:28:45;94321.47;;;32.24;19.99
80988;BME280;70452;39.386;-3.210;2023-08-24T08:31:24;94312.38;;;32.09;20.18
80988;BME280;70452;39.386;-3.210;2023-08-24T08:33:53;94311.31;;;32.34;20.10
80988;BME280;70452;39.386;-3.210;2023-08-24T08:36:37;94319.94;;;32.50;19.91
80988;BME280;70452;39.386;-3.210;2023-08-24T08:39:43;94319.19;;;32.46;19.81
80988;BME280;70452;39.386;-3.210;2023-08-24T08:42:23;94319.41;;;32.63;19.85
80988;BME280;70452;39.386;-3.210;2023-08-24T08:45:16;94324.41;;;32.82;19.82
80988;BME280;70452;39.386;-3.210;2023-08-24T08:47:55;94321.84;;;32.92;19.39
80988;BME280;70452;39.386;-3.210;2023-08-24T08:50:44;94322.22;;;32.94;19.92
80988;BME280;70452;39.386;-3.210;2023-08-24T08:53:38;94325.22;;;33.37;19.22
80988;BME280;70452;39.386;-3.210;2023-08-24T08:56:15;94316.97;;;33.23;19.48
80988;BME280;70452;39.386;-3.210;2023-08-24T08:58:52;94319.63;;;33.34;19.34
80988;BME280;70452;39.386;-3.210;2023-08-24T09:01:27;94323.50;;;33.43;19.79
80988;BME280;70452;39.386;-3.210;2023-08-24T09:04:12;94306.34;;;33.58;19.55
80988;BME280;70452;39.386;-3.210;2023-08-24T09:06:49;94313.22;;;33.80;19.57
80988;BME280;70452;39.386;-3.210;2023-08-24T09:09:30;94317.06;;;33.90;19.46
80988;BME280;70452;39.386;-3.210;2023-08-24T09:12:21;94312.03;;;34.01;19.49
80988;BME280;70452;39.386;-3.210;2023-08-24T09:15:08;94322.69;;;34.14;19.01
80988;BME280;70452;39.386;-3.210;2023-08-24T09:20:41;94315.56;;;34.29;19.35
80988;BME280;70452;39.386;-3.210;2023-08-24T09:23:29;94316.69;;;34.12;20.10
80988;BME280;70452;39.386;-3.210;2023-08-24T09:26:07;94315.13;;;34.31;19.71
80988;BME280;70452;39.386;-3.210;2023-08-24T09:28:50;94304.69;;;34.48;19.46
80988;BME280;70452;39.386;-3.210;2023-08-24T09:31:51;94313.09;;;34.51;19.49
80988;BME280;70452;39.386;-3.210;2023-08-24T09:34:27;94316.03;;;34.64;19.19
80988;BME280;70452;39.386;-3.210;2023-08-24T09:37:11;94309.34;;;34.78;18.90
80988;BME280;70452;39.386;-3.210;2023-08-24T09:40:09;94314.00;;;34.85;18.98
80988;BME280;70452;39.386;-3.210;2023-08-24T09:42:50;94314.66;;;34.92;18.89
80988;BME280;70452;39.386;-3.210;2023-08-24T09:45:23;94307.53;;;35.04;19.05
80988;BME280;70452;39.386;-3.210;2023-08-24T09:48:01;94308.06;;;35.16;18.63
80988;BME280;70452;39.386;-3.210;2023-08-24T09:50:52;94295.91;;;35.52;18.64
80988;BME280;70452;39.386;-3.210;2023-08-24T09:53:38;94295.72;;;35.26;18.67
80988;BME280;70452;39.386;-3.210;2023-08-24T09:56:28;94307.34;;;35.32;18.70
80988;BME280;70452;39.386;-3.210;2023-08-24T09:59:16;94300.88;;;35.47;18.53
80988;BME280;70452;39.386;-3.210;2023-08-24T10:04:43;94293.88;;;35.85;18.36
80988;BME280;70452;39.386;-3.210;2023-08-24T10:07:29;94300.00;;;35.83;18.14
80988;BME280;70452;39.386;-3.210;2023-08-24T10:10:19;94294.72;;;35.98;17.94
80988;BME280;70452;39.386;-3.210;2023-08-24T10:12:51;94300.50;;;35.95;17.50
80988;BME280;70452;39.386;-3.210;2023-08-24T10:15:48;94293.63;;;36.09;17.83
80988;BME280;70452;39.386;-3.210;2023-08-24T10:18:28;94289.66;;;36.22;17.20
80988;BME280;70452;39.386;-3.210;2023-08-24T10:21:15;94284.94;;;35.86;17.56
80988;BME280;70452;39.386;-3.210;2023-08-24T10:24:03;94285.47;;;35.81;17.76
80988;BME280;70452;39.386;-3.210;2023-08-24T10:29:38;94289.81;;;36.15;17.47
80988;BME280;70452;39.386;-3.210;2023-08-24T10:32:25;94288.84;;;36.22;16.74
80988;BME280;70452;39.386;-3.210;2023-08-24T10:41:09;94289.44;;;35.51;17.91
80988;BME280;70452;39.386;-3.210;2023-08-24T10:44:04;94284.88;;;36.03;17.09
80988;BME280;70452;39.386;-3.210;2023-08-24T10:50:14;94279.47;;;36.67;16.91
80988;BME280;70452;39.386;-3.210;2023-08-24T10:52:57;94285.88;;;36.55;16.95
80988;BME280;70452;39.386;-3.210;2023-08-24T10:55:38;94282.56;;;36.86;16.20
80988;BME280;70452;39.386;-3.210;2023-08-24T10:58:32;94280.31;;;36.93;16.65
80988;BME280;70452;39.386;-3.210;2023-08-24T11:01:18;94280.53;;;36.99;16.17
80988;BME280;70452;39.386;-3.210;2023-08-24T11:04:12;94281.22;;;37.03;16.11
80988;BME280;70452;39.386;-3.210;2023-08-24T11:07:16;94269.38;;;36.79;16.35
80988;BME280;70452;39.386;-3.210;2023-08-24T11:09:57;94265.31;;;36.93;16.38
80988;BME280;70452;39.386;-3.210;2023-08-24T11:12:35;94258.28;;;37.10;16.35
80988;BME280;70452;39.386;-3.210;2023-08-24T11:15:34;94249.88;;;36.39;17.12
80988;BME280;70452;39.386;-3.210;2023-08-24T11:18:39;94252.44;;;36.63;16.99
80988;BME280;70452;39.386;-3.210;2023-08-24T11:21:43;94253.06;;;37.09;16.19
80988;BME280;70452;39.386;-3.210;2023-08-24T11:24:30;94251.03;;;37.35;16.24
80988;BME280;70452;39.386;-3.210;2023-08-24T11:27:32;94256.00;;;37.44;15.97
80988;BME280;70452;39.386;-3.210;2023-08-24T11:30:30;94248.47;;;37.63;15.85
80988;BME280;70452;39.386;-3.210;2023-08-24T11:33:09;94253.47;;;37.71;15.83
80988;BME280;70452;39.386;-3.210;2023-08-24T11:36:04;94248.63;;;37.33;16.19
80988;BME280;70452;39.386;-3.210;2023-08-24T11:38:52;94238.63;;;37.29;15.75
80988;BME280;70452;39.386;-3.210;2023-08-24T11:41:37;94237.28;;;37.33;16.48
80988;BME280;70452;39.386;-3.210;2023-08-24T11:44:44;94245.34;;;37.35;16.31
80988;BME280;70452;39.386;-3.210;2023-08-24T11:47:51;94232.91;;;37.54;15.61
80988;BME280;70452;39.386;-3.210;2023-08-24T11:53:52;94238.22;;;38.13;14.92
80988;BME280;70452;39.386;-3.210;2023-08-24T11:56:33;94234.69;;;37.87;14.72
80988;BME280;70452;39.386;-3.210;2023-08-24T11:59:13;94240.19;;;38.03;14.64
80988;BME280;70452;39.386;-3.210;2023-08-24T12:02:05;94234.75;;;38.31;14.60
80988;BME280;70452;39.386;-3.210;2023-08-24T12:04:53;94237.00;;;38.58;14.54
80988;BME280;70452;39.386;-3.210;2023-08-24T12:07:57;94234.16;;;38.36;14.71
80988;BME280;70452;39.386;-3.210;2023-08-24T12:10:41;94230.75;;;38.06;15.09
80988;BME280;70452;39.386;-3.210;2023-08-24T12:13:15;94234.47;;;38.16;14.72
80988;BME280;70452;39.386;-3.210;2023-08-24T12:19:01;94223.28;;;38.00;14.28
80988;BME280;70452;39.386;-3.210;2023-08-24T12:21:45;94217.59;;;38.00;14.09
80988;BME280;70452;39.386;-3.210;2023-08-24T12:24:49;94213.31;;;38.17;13.32
80988;BME280;70452;39.386;-3.210;2023-08-24T12:27:29;94219.31;;;38.41;14.02
80988;BME280;70452;39.386;-3.210;2023-08-24T12:30:04;94213.63;;;38.41;13.92
80988;BME280;70452;39.386;-3.210;2023-08-24T12:32:51;94209.06;;;38.66;13.84
80988;BME280;70452;39.386;-3.210;2023-08-24T12:35:42;94208.00;;;38.82;13.36
80988;BME280;70452;39.386;-3.210;2023-08-24T12:38:31;94209.94;;;38.85;13.40
80988;BME280;70452;39.386;-3.210;2023-08-24T12:41:16;94205.81;;;38.55;13.74
80988;BME280;70452;39.386;-3.210;2023-08-24T12:44:09;94203.13;;;38.82;13.65
80988;BME280;70452;39.386;-3.210;2023-08-24T12:46:51;94199.81;;;38.84;13.18
80988;BME280;70452;39.386;-3.210;2023-08-24T12:49:32;94199.75;;;38.75;13.16
80988;BME280;70452;39.386;-3.210;2023-08-24T12:52:21;94195.66;;;38.76;13.08
80988;BME280;70452;39.386;-3.210;2023-08-24T12:55:06;94194.91;;;38.31;13.83
80988;BME280;70452;39.386;-3.210;2023-08-24T12:57:47;94196.94;;;38.53;13.31
80988;BME280;70452;39.386;-3.210;2023-08-24T13:00:44;94190.63;;;38.80;13.08
80988;BME280;70452;39.386;-3.210;2023-08-24T13:03:23;94184.22;;;38.98;12.81
80988;BME280;70452;39.386;-3.210;2023-08-24T13:06:33;94182.56;;;39.19;13.04
80988;BME280;70452;39.386;-3.210;2023-08-24T13:09:22;94178.16;;;39.27;12.43
80988;BME280;70452;39.386;-3.210;2023-08-24T13:12:07;94167.56;;;39.37;12.31
80988;BME280;70452;39.386;-3.210;2023-08-24T13:14:50;94175.47;;;39.24;12.59
80988;BME280;70452;39.386;-3.210;2023-08-24T13:17:46;94175.78;;;38.85;12.62
80988;BME280;70452;39.386;-3.210;2023-08-24T13:20:34;94162.53;;;38.91;12.26
80988;BME280;70452;39.386;-3.210;2023-08-24T13:23:11;94162.97;;;38.80;12.29
80988;BME280;70452;39.386;-3.210;2023-08-24T13:26:27;94159.09;;;39.83;11.53
80988;BME280;70452;39.386;-3.210;2023-08-24T13:29:23;94168.13;;;40.19;10.49
80988;BME280;70452;39.386;-3.210;2023-08-24T13:32:23;94156.41;;;40.87;10.08
80988;BME280;70452;39.386;-3.210;2023-08-24T13:38:06;94149.75;;;40.20;10.16
80988;BME280;70452;39.386;-3.210;2023-08-24T13:40:52;94142.22;;;40.59;9.72
80988;BME280;70452;39.386;-3.210;2023-08-24T13:43:28;94138.13;;;40.42;9.92
80988;BME280;70452;39.386;-3.210;2023-08-24T13:46:29;94132.44;;;39.31;10.54
80988;BME280;70452;39.386;-3.210;2023-08-24T13:49:00;94132.13;;;39.47;10.63
80988;BME280;70452;39.386;-3.210;2023-08-24T13:51:47;94138.22;;;41.09;9.39
80988;BME280;70452;39.386;-3.210;2023-08-24T13:54:42;94128.63;;;41.21;8.95
80988;BME280;70452;39.386;-3.210;2023-08-24T13:57:22;94135.81;;;41.16;9.07
80988;BME280;70452;39.386;-3.210;2023-08-24T13:59:56;94121.72;;;40.70;9.27
80988;BME280;70452;39.386;-3.210;2023-08-24T14:02:34;94120.31;;;40.65;8.90
80988;BME280;70452;39.386;-3.210;2023-08-24T14:05:34;94115.69;;;39.79;9.18
80988;BME280;70452;39.386;-3.210;2023-08-24T14:11:15;94111.56;;;39.52;9.79
80988;BME280;70452;39.386;-3.210;2023-08-24T14:13:51;94109.63;;;39.22;9.88
80988;BME280;70452;39.386;-3.210;2023-08-24T14:16:28;94114.56;;;39.39;10.10
80988;BME280;70452;39.386;-3.210;2023-08-24T14:19:22;94116.28;;;39.37;10.19
80988;BME280;70452;39.386;-3.210;2023-08-24T14:22:30;94105.59;;;38.91;10.34
80988;BME280;70452;39.386;-3.210;2023-08-24T14:24:57;94102.53;;;39.45;9.50
80988;BME280;70452;39.386;-3.210;2023-08-24T14:27:34;94099.56;;;39.94;9.04
80988;BME280;70452;39.386;-3.210;2023-08-24T14:30:20;94093.84;;;39.48;9.97
80988;BME280;70452;39.386;-3.210;2023-08-24T14:33:01;94100.84;;;39.56;9.58
80988;BME280;70452;39.386;-3.210;2023-08-24T14:35:49;94097.38;;;39.02;10.35
80988;BME280;70452;39.386;-3.210;2023-08-24T14:38:52;94092.41;;;40.08;9.88
80988;BME280;70452;39.386;-3.210;2023-08-24T14:41:22;94091.06;;;40.46;9.79
80988;BME280;70452;39.386;-3.210;2023-08-24T14:44:05;94086.59;;;40.55;9.56
80988;BME280;70452;39.386;-3.210;2023-08-24T14:46:46;94087.91;;;40.44;9.50
80988;BME280;70452;39.386;-3.210;2023-08-24T14:49:32;94082.97;;;40.45;9.71
80988;BME280;70452;39.386;-3.210;2023-08-24T14:52:33;94091.34;;;40.48;9.98
80988;BME280;70452;39.386;-3.210;2023-08-24T14:55:50;94076.06;;;39.90;10.28
80988;BME280;70452;39.386;-3.210;2023-08-24T14:58:34;94081.81;;;39.72;10.58
80988;BME280;70452;39.386;-3.210;2023-08-24T15:01:22;94073.22;;;40.09;10.26
80988;BME280;70452;39.386;-3.210;2023-08-24T15:04:03;94074.94;;;40.16;10.14